Time;durP1;ratioP1;P1;durP2;ratioP2;P2;SDS_P1;SDS_P2;PMS_P1;PMS_P2;Temp;Humidity;BMP_temperature;BMP_pressure;BME280_temperature;BME280_humidity;BME280_pressure;Samples;Min_cycle;Max_cycle;Signal;HPM_P1;HPM_P2
2023/12/02 00:00:46;;;;;;;29.30;14.17;;;;;;;6.42;92.48;96459.06;4893273;29;20236;-77
2023/12/02 00:03:13;;;;;;;33.73;15.90;;;;;;;6.48;91.23;96458.84;4893779;29;20789;-72
2023/12/02 00:05:40;;;;;;;33.37;15.17;;;;;;;6.90;91.00;96494.06;4908231;29;20233;-75
2023/12/02 00:08:07;;;;;;;33.07;16.53;;;;;;;6.94;90.06;96499.03;4893640;29;20275;-76
2023/12/02 00:10:34;;;;;;;32.00;16.63;;;;;;;6.73;90.99;96486.16;4893521;29;20813;-76
2023/12/02 00:13:01;;;;;;;34.10;17.60;;;;;;;6.79;91.49;96493.63;4893465;29;20319;-74
2023/12/02 00:15:28;;;;;;;36.20;17.83;;;;;;;6.77;90.95;96501.44;4893672;29;20276;-76
2023/12/02 00:17:56;;;;;;;31.40;17.17;;;;;;;6.30;90.54;96428.69;4893390;29;20220;-72
2023/12/02 00:20:23;;;;;;;30.00;16.37;;;;;;;6.50;92.09;96494.78;4893490;29;20204;-71
2023/12/02 00:22:50;;;;;;;27.67;15.03;;;;;;;6.48;92.42;96502.56;4892971;29;20285;-77
2023/12/02 00:25:17;;;;;;;27.23;14.10;;;;;;;6.26;92.60;96470.84;4893519;29;20242;-71
2023/12/02 00:27:44;;;;;;;38.63;18.07;;;;;;;6.24;92.74;96466.66;4892961;29;20707;-76
2023/12/02 00:30:12;;;;;;;30.80;14.67;;;;;;;6.03;93.23;96429.75;4892672;29;20580;-71
2023/12/02 00:32:39;;;;;;;27.00;14.37;;;;;;;6.44;92.91;96483.00;4893153;29;20204;-77
2023/12/02 00:35:06;;;;;;;25.60;14.80;;;;;;;6.41;91.47;96477.13;4892687;29;20200;-73
2023/12/02 00:37:33;;;;;;;28.10;13.60;;;;;;;6.34;90.03;96466.25;4893561;29;20200;-74
2023/12/02 00:40:01;;;;;;;26.80;14.50;;;;;;;6.20;91.91;96454.81;4892844;29;20215;-73
2023/12/02 00:42:29;;;;;;;28.60;14.33;;;;;;;6.21;92.39;96462.47;4892902;29;20228;-71
2023/12/02 00:44:56;;;;;;;28.13;13.33;;;;;;;6.21;93.92;96470.19;4893005;29;20340;-74
2023/12/02 00:47:23;;;;;;;27.33;13.60;;;;;;;6.16;92.91;96464.34;4892842;29;20204;-70
2023/12/02 00:49:51;;;;;;;28.83;14.67;;;;;;;6.21;92.79;96444.47;4892965;29;20277;-78
2023/12/02 00:52:18;;;;;;;32.83;15.83;;;;;;;6.47;91.83;96477.72;4892621;29;20247;-70
2023/12/02 00:54:45;;;;;;;25.93;14.13;;;;;;;6.61;90.42;96481.50;4893148;29;20738;-72
2023/12/02 00:57:12;;;;;;;27.13;13.83;;;;;;;6.42;90.13;96477.06;4892503;29;20207;-74
2023/12/02 00:59:39;;;;;;;27.97;14.90;;;;;;;6.52;89.55;96485.25;4892565;29;20558;-77
2023/12/02 01:02:06;;;;;;;29.00;15.33;;;;;;;6.13;90.01;96443.94;4893308;29;20234;-73
2023/12/02 01:04:35;;;;;;;33.63;16.33;;;;;;;6.44;89.85;96484.72;4892380;29;20243;-70
2023/12/02 01:07:02;;;;;;;30.40;16.10;;;;;;;6.45;89.23;96478.69;4892739;29;20204;-69
2023/12/02 01:09:29;;;;;;;29.80;15.67;;;;;;;6.39;89.80;96491.75;4892371;29;20240;-71
2023/12/02 01:11:56;;;;;;;27.77;15.07;;;;;;;6.40;89.67;96473.72;4892794;29;20293;-71
2023/12/02 01:14:25;;;;;;;27.57;14.80;;;;;;;6.35;90.13;96493.63;4892452;29;20209;-71
2023/12/02 01:16:53;;;;;;;43.90;18.00;;;;;;;6.11;89.73;96484.28;4903851;29;20271;-71
2023/12/02 01:19:21;;;;;;;35.00;18.30;;;;;;;5.95;91.45;96480.59;4898403;29;20210;-71
2023/12/02 01:21:48;;;;;;;33.97;17.43;;;;;;;5.77;92.21;96468.38;4899998;29;20256;-76
2023/12/02 01:24:15;;;;;;;39.17;19.77;;;;;;;5.85;93.06;96474.13;4893906;29;20253;-76
2023/12/02 01:26:43;;;;;;;36.87;20.67;;;;;;;5.86;93.93;96468.06;4894853;29;20205;-74
2023/12/02 01:29:10;;;;;;;45.53;22.83;;;;;;;5.65;95.01;96443.97;4895206;29;20196;-76
2023/12/02 01:31:37;;;;;;;39.80;22.60;;;;;;;5.86;94.78;96464.66;4893959;29;20221;-77
2023/12/02 01:34:04;;;;;;;41.70;23.43;;;;;;;5.93;94.44;96464.41;4893445;29;20669;-73
2023/12/02 01:36:31;;;;;;;45.07;24.87;;;;;;;6.00;94.76;96454.69;4906706;29;20201;-76
2023/12/02 01:38:58;;;;;;;37.83;21.00;;;;;;;5.76;93.16;96408.47;4891971;29;20214;-76
2023/12/02 01:41:25;;;;;;;50.00;22.67;;;;;;;6.22;94.14;96464.13;4891635;29;20194;-74
2023/12/02 01:43:53;;;;;;;42.17;22.87;;;;;;;5.96;93.22;96436.00;4891945;29;20237;-77
2023/12/02 01:46:20;;;;;;;35.60;18.43;;;;;;;5.72;93.87;96422.31;4892231;29;20603;-75
2023/12/02 01:48:48;;;;;;;38.50;17.43;;;;;;;5.93;95.07;96461.84;4891706;29;20196;-76
2023/12/02 01:51:16;;;;;;;32.50;16.77;;;;;;;5.94;94.35;96447.22;4892639;29;20213;-74
2023/12/02 01:53:43;;;;;;;33.07;17.83;;;;;;;6.18;94.49;96462.56;4891567;29;20626;-76
2023/12/02 01:56:11;;;;;;;38.37;19.63;;;;;;;6.18;92.73;96470.28;4891891;29;20291;-73
2023/12/02 01:58:39;;;;;;;49.20;22.93;;;;;;;6.27;92.50;96463.94;4892061;29;20586;-77
2023/12/02 02:01:06;;;;;;;38.70;19.87;;;;;;;6.32;92.42;96462.91;4892158;29;20235;-76
2023/12/02 02:03:33;;;;;;;32.50;17.50;;;;;;;6.43;89.88;96458.16;4892233;29;20228;-77
2023/12/02 02:06:00;;;;;;;34.07;18.00;;;;;;;6.39;89.36;96461.75;4891746;29;20210;-75
2023/12/02 02:08:28;;;;;;;32.43;16.57;;;;;;;6.25;89.33;96452.88;4892203;29;20276;-75
2023/12/02 02:10:56;;;;;;;37.33;18.00;;;;;;;6.05;89.28;96443.38;4891475;29;20221;-76
2023/12/02 02:13:25;;;;;;;37.87;19.30;;;;;;;6.06;89.03;96442.47;4891879;29;20697;-76
2023/12/02 02:15:52;;;;;;;34.00;17.70;;;;;;;6.08;88.75;96440.69;4891477;29;20196;-74
2023/12/02 02:18:19;;;;;;;37.87;18.87;;;;;;;5.95;89.17;96412.94;4891645;29;20208;-72
2023/12/02 02:20:51;;;;;;;33.87;16.30;;;;;;;6.02;88.13;96434.97;4890398;29;20239;-72
2023/12/02 02:23:20;;;;;;;28.80;15.37;;;;;;;5.79;87.41;96410.06;4891396;29;20654;-75
2023/12/02 02:25:50;;;;;;;33.17;15.13;;;;;;;5.95;88.31;96442.06;4892002;29;20200;-76
2023/12/02 02:28:25;;;;;;;32.37;15.77;;;;;;;6.08;86.84;96442.44;4890974;29;20209;-77
2023/12/02 02:30:53;;;;;;;31.27;15.43;;;;;;;6.05;86.83;96421.97;4891476;29;20747;-76
2023/12/02 02:33:20;;;;;;;32.23;14.13;;;;;;;5.83;86.91;96409.09;4891417;29;20295;-74
2023/12/02 02:35:48;;;;;;;31.67;14.90;;;;;;;5.86;86.73;96408.13;4891278;29;20211;-76
2023/12/02 02:38:15;;;;;;;25.40;13.50;;;;;;;5.61;87.60;96421.84;4891484;29;20238;-75
2023/12/02 02:40:42;;;;;;;33.13;15.40;;;;;;;5.66;87.64;96406.28;4890922;29;20768;-75
2023/12/02 02:43:10;;;;;;;32.13;15.00;;;;;;;5.54;89.14;96406.75;4891709;29;20315;-75
2023/12/02 02:45:37;;;;;;;36.07;15.03;;;;;;;5.61;87.33;96408.16;4891063;29;20308;-77
2023/12/02 02:48:05;;;;;;;35.00;16.10;;;;;;;5.41;87.56;96401.19;4891570;29;20276;-72
2023/12/02 02:50:32;;;;;;;29.17;13.30;;;;;;;5.58;87.37;96405.72;4891246;29;20198;-69
2023/12/02 02:53:00;;;;;;;32.23;14.47;;;;;;;5.46;88.19;96404.44;4891658;29;20211;-70
2023/12/02 02:55:27;;;;;;;25.80;12.77;;;;;;;5.43;88.30;96406.28;4895141;29;20683;-73
2023/12/02 02:57:54;;;;;;;27.50;12.57;;;;;;;5.47;89.30;96406.13;4895269;29;20292;-73
2023/12/02 03:00:23;;;;;;;24.73;12.50;;;;;;;5.31;89.10;96393.88;4895311;29;20286;-73
2023/12/02 03:02:50;;;;;;;26.57;11.90;;;;;;;5.50;89.13;96413.69;4894684;29;20232;-74
2023/12/02 03:05:17;;;;;;;26.50;12.63;;;;;;;5.45;89.25;96415.59;4894949;29;20235;-73
2023/12/02 03:07:44;;;;;;;34.70;13.43;;;;;;;5.55;89.93;96416.09;4894834;29;20202;-73
2023/12/02 03:10:12;;;;;;;30.63;14.70;;;;;;;5.51;89.99;96414.53;4894252;29;20259;-74
2023/12/02 03:12:39;;;;;;;31.77;14.03;;;;;;;5.48;90.99;96412.09;4895727;29;20209;-73
2023/12/02 03:15:07;;;;;;;30.13;14.20;;;;;;;5.35;92.04;96408.28;4913457;29;20211;-74
2023/12/02 03:17:34;;;;;;;27.27;13.10;;;;;;;5.48;91.21;96402.63;4913837;29;20290;-76
2023/12/02 03:20:01;;;;;;;27.37;12.97;;;;;;;5.49;91.69;96404.34;4913057;29;20207;-76
2023/12/02 03:22:29;;;;;;;31.17;13.33;;;;;;;5.54;91.49;96407.56;4913474;29;20216;-72
2023/12/02 03:24:56;;;;;;;28.40;12.80;;;;;;;5.68;92.17;96396.78;4913308;29;20265;-75
2023/12/02 03:27:23;;;;;;;27.63;12.93;;;;;;;5.63;91.05;96384.13;4913114;29;20681;-74
2023/12/02 03:29:51;;;;;;;27.07;12.67;;;;;;;5.59;90.68;96374.00;4913257;29;20203;-77
2023/12/02 03:32:18;;;;;;;27.50;13.07;;;;;;;5.76;90.69;96402.47;4913046;29;20298;-75
2023/12/02 03:34:45;;;;;;;26.37;12.67;;;;;;;5.71;90.63;96404.38;4913371;29;20278;-75
2023/12/02 03:37:12;;;;;;;26.53;12.87;;;;;;;5.72;91.35;96395.78;4912740;29;20305;-75
2023/12/02 03:39:39;;;;;;;30.37;12.60;;;;;;;5.72;90.86;96401.75;4913263;29;20200;-75
2023/12/02 03:42:06;;;;;;;25.77;12.57;;;;;;;5.77;91.01;96404.13;4912647;29;20204;-76
2023/12/02 03:44:33;;;;;;;23.00;11.80;;;;;;;5.51;91.83;96401.69;4913086;29;20383;-70
2023/12/02 03:47:03;;;;;;;30.83;13.97;;;;;;;5.72;92.55;96406.91;4913424;29;20206;-74
2023/12/02 03:49:30;;;;;;;27.13;12.67;;;;;;;5.52;91.82;96387.97;4896536;29;20597;-71
2023/12/02 03:51:59;;;;;;;22.77;11.67;;;;;;;5.61;92.09;96400.47;4913419;29;20230;-76
2023/12/02 03:54:26;;;;;;;25.73;12.10;;;;;;;5.79;92.19;96395.50;4912537;29;20216;-77
2023/12/02 03:56:54;;;;;;;28.13;12.20;;;;;;;5.65;92.12;96395.16;4913307;29;20858;-75
2023/12/02 03:59:21;;;;;;;23.33;11.80;;;;;;;5.71;92.75;96388.97;4912832;29;20197;-76
2023/12/02 04:01:48;;;;;;;24.47;12.40;;;;;;;5.73;93.02;96393.16;4912522;29;20274;-75
2023/12/02 04:04:15;;;;;;;28.83;13.00;;;;;;;5.74;92.56;96383.72;4911843;29;20228;-74
2023/12/02 04:06:43;;;;;;;23.90;13.13;;;;;;;5.73;93.11;96370.03;4912484;29;20208;-76
2023/12/02 04:09:11;;;;;;;23.60;11.50;;;;;;;5.30;93.54;96320.31;4912506;29;20263;-74
2023/12/02 04:11:38;;;;;;;25.77;12.47;;;;;;;5.76;94.08;96379.38;4912271;29;20215;-76
2023/12/02 04:14:06;;;;;;;25.77;12.83;;;;;;;5.75;92.54;96377.66;4911754;29;20224;-73
2023/12/02 04:16:33;;;;;;;23.53;12.37;;;;;;;5.83;92.46;96375.69;4912045;29;20211;-75
2023/12/02 04:19:00;;;;;;;31.03;12.83;;;;;;;5.98;91.83;96376.84;4912415;29;20203;-72
2023/12/02 04:21:28;;;;;;;28.50;12.40;;;;;;;5.83;91.86;96372.25;4911846;29;20238;-72
2023/12/02 04:23:55;;;;;;;24.40;12.73;;;;;;;5.81;92.58;96390.31;4911976;29;20774;-76
2023/12/02 04:26:22;;;;;;;22.87;12.63;;;;;;;5.73;92.92;96369.19;4912660;29;20566;-72
2023/12/02 04:28:49;;;;;;;25.20;13.37;;;;;;;5.84;92.41;96371.38;4911877;29;20204;-72
2023/12/02 04:31:16;;;;;;;32.53;17.90;;;;;;;5.83;92.03;96378.25;4912478;29;20195;-74
2023/12/02 04:33:43;;;;;;;58.30;30.07;;;;;;;5.89;91.52;96384.91;4911777;29;20305;-76
2023/12/02 04:36:11;;;;;;;37.33;19.00;;;;;;;5.92;90.60;96393.34;4912059;29;20299;-74
2023/12/02 04:38:38;;;;;;;31.90;14.87;;;;;;;5.74;89.91;96389.69;4911793;29;20204;-75
2023/12/02 04:41:05;;;;;;;24.97;13.07;;;;;;;5.70;89.33;96371.88;4912095;29;20643;-74
2023/12/02 04:43:32;;;;;;;30.50;16.33;;;;;;;5.83;88.50;96370.53;4911773;29;20223;-74
2023/12/02 04:46:00;;;;;;;37.47;19.60;;;;;;;5.52;87.71;96362.31;4911919;29;20314;-73
2023/12/02 04:48:27;;;;;;;35.30;17.50;;;;;;;5.24;88.72;96356.47;4911887;29;20718;-74
2023/12/02 04:50:55;;;;;;;29.87;15.37;;;;;;;5.27;89.34;96359.78;4911387;29;20210;-71
2023/12/02 04:53:22;;;;;;;34.37;16.23;;;;;;;5.26;89.86;96357.25;4911747;29;20259;-73
2023/12/02 04:55:52;;;;;;;34.93;15.70;;;;;;;5.22;91.20;96355.69;4911560;29;20259;-77
2023/12/02 04:58:20;;;;;;;36.33;17.97;;;;;;;5.50;89.98;96377.75;4894418;29;20307;-74
2023/12/02 05:00:48;;;;;;;34.03;15.83;;;;;;;5.27;89.87;96362.34;4910958;29;20674;-74
2023/12/02 05:03:17;;;;;;;31.23;14.97;;;;;;;5.38;89.90;96361.97;4911199;29;20192;-75
2023/12/02 05:05:45;;;;;;;24.70;12.57;;;;;;;4.89;89.39;96302.13;4911797;29;20336;-74
2023/12/02 05:08:13;;;;;;;24.83;13.57;;;;;;;5.32;89.89;96369.88;4911319;29;20311;-76
2023/12/02 05:10:40;;;;;;;28.63;14.10;;;;;;;5.40;90.23;96388.44;4911783;29;20234;-76
2023/12/02 05:13:07;;;;;;;27.50;14.90;;;;;;;5.62;87.84;96405.56;4911435;29;20211;-77
2023/12/02 05:15:34;;;;;;;33.40;16.33;;;;;;;5.58;87.93;96408.31;4910963;29;20198;-75
2023/12/02 05:18:02;;;;;;;30.53;15.07;;;;;;;5.36;88.87;96390.25;4910887;29;20198;-76
2023/12/02 05:20:29;;;;;;;32.67;16.00;;;;;;;5.46;88.58;96383.06;4910949;29;20195;-76
2023/12/02 05:22:56;;;;;;;33.07;15.50;;;;;;;5.49;87.28;96386.34;4911240;29;20570;-76
2023/12/02 05:25:24;;;;;;;31.40;13.80;;;;;;;5.36;88.83;96381.69;4910902;29;20327;-76
2023/12/02 05:27:51;;;;;;;28.17;13.93;;;;;;;5.31;87.86;96363.91;4911421;29;20199;-76
2023/12/02 05:30:18;;;;;;;27.10;13.10;;;;;;;5.44;87.70;96359.19;4910862;29;20202;-78
2023/12/02 05:32:46;;;;;;;30.67;12.77;;;;;;;5.08;90.81;96355.34;4894294;29;20972;-78
2023/12/02 05:35:14;;;;;;;30.50;14.10;;;;;;;5.05;90.77;96366.56;4910807;29;20222;-75
2023/12/02 05:37:41;;;;;;;28.93;13.23;;;;;;;4.90;90.48;96316.63;4910660;29;20199;-76
2023/12/02 05:40:09;;;;;;;32.20;14.37;;;;;;;4.93;90.20;96357.56;4911608;29;20203;-76
2023/12/02 05:42:37;;;;;;;26.20;13.73;;;;;;;5.02;89.27;96361.53;4910708;29;20195;-75
2023/12/02 05:45:05;;;;;;;34.13;14.13;;;;;;;4.97;89.60;96384.78;4910847;29;20234;-75
2023/12/02 05:47:32;;;;;;;25.77;13.50;;;;;;;4.92;89.81;96373.03;4910443;29;20202;-75
2023/12/02 05:50:00;;;;;;;29.50;14.47;;;;;;;4.97;90.32;96377.09;4910615;29;20208;-73
2023/12/02 05:52:30;;;;;;;27.63;14.40;;;;;;;5.10;90.17;96381.78;4910927;29;20267;-77
2023/12/02 05:54:57;;;;;;;31.03;16.37;;;;;;;5.15;89.42;96375.63;4910866;29;20685;-75
2023/12/02 05:57:24;;;;;;;25.03;13.70;;;;;;;5.05;89.03;96365.75;4910968;29;20249;-78
2023/12/02 05:59:51;;;;;;;31.07;14.23;;;;;;;5.22;89.05;96365.97;4910332;29;20286;-75
2023/12/02 06:02:18;;;;;;;26.47;14.40;;;;;;;4.94;88.91;96349.00;4911092;29;20368;-76
2023/12/02 06:04:45;;;;;;;27.73;14.30;;;;;;;5.13;90.36;96382.50;4909974;29;20295;-76
2023/12/02 06:07:12;;;;;;;28.90;14.90;;;;;;;5.16;89.27;96359.31;4910814;29;20217;-76
2023/12/02 06:09:46;;;;;;;26.47;14.63;;;;;;;5.25;89.99;96378.69;4910499;29;20199;-76
2023/12/02 06:12:13;;;;;;;36.83;16.37;;;;;;;5.39;88.92;96386.75;4910434;29;20587;-76
2023/12/02 06:14:40;;;;;;;33.77;16.47;;;;;;;5.50;88.67;96346.13;4910578;29;20215;-79
2023/12/02 06:17:07;;;;;;;36.90;18.67;;;;;;;5.75;87.20;96355.41;4909823;29;20697;-77
2023/12/02 06:19:36;;;;;;;36.03;16.97;;;;;;;5.71;87.17;96335.03;4877900;29;20207;-76
2023/12/02 06:22:03;;;;;;;34.73;16.00;;;;;;;6.10;86.51;96354.06;4910019;29;20192;-75
2023/12/02 06:24:30;;;;;;;31.67;15.97;;;;;;;5.89;87.75;96372.91;4910202;29;20230;-72
2023/12/02 06:26:57;;;;;;;25.47;13.27;;;;;;;6.12;87.78;96374.59;4910213;29;20204;-76
2023/12/02 06:29:25;;;;;;;28.87;14.70;;;;;;;6.18;87.89;96375.16;4914063;29;20302;-74
2023/12/02 06:31:53;;;;;;;30.27;15.80;;;;;;;6.30;88.18;96346.44;4914513;29;20635;-74
2023/12/02 06:34:20;;;;;;;29.37;15.03;;;;;;;6.66;86.54;96356.13;4913654;29;20252;-73
2023/12/02 06:36:47;;;;;;;33.50;14.43;;;;;;;6.59;86.61;96358.09;4914260;29;20201;-75
2023/12/02 06:39:15;;;;;;;33.53;17.50;;;;;;;6.47;86.21;96379.19;4913314;29;20286;-73
2023/12/02 06:41:42;;;;;;;35.83;18.03;;;;;;;6.51;85.94;96391.81;4914078;29;20204;-75
2023/12/02 06:44:10;;;;;;;26.40;15.20;;;;;;;6.46;86.66;96398.91;4913636;29;20300;-72
2023/12/02 06:46:37;;;;;;;33.37;16.67;;;;;;;6.33;87.93;96420.84;4913370;29;20933;-77
2023/12/02 06:49:05;;;;;;;32.37;17.73;;;;;;;6.37;87.83;96416.41;4913653;29;20295;-76
2023/12/02 06:51:32;;;;;;;36.77;17.53;;;;;;;6.04;87.72;96367.16;4895966;29;20200;-76
2023/12/02 06:54:00;;;;;;;38.50;18.10;;;;;;;6.02;87.79;96388.69;4894987;29;20208;-72
2023/12/02 06:56:27;;;;;;;39.83;19.93;;;;;;;5.86;89.03;96380.72;4894631;29;20207;-78
2023/12/02 06:58:54;;;;;;;28.67;16.13;;;;;;;5.70;89.02;96383.00;4893556;29;20235;-77
2023/12/02 07:01:32;;;;;;;29.03;14.33;;;;;;;5.88;90.72;96385.78;4893020;29;20225;-75
2023/12/02 07:04:00;;;;;;;30.87;15.87;;;;;;;5.97;90.35;96383.72;4893307;29;20252;-73
2023/12/02 07:06:28;;;;;;;35.80;15.27;;;;;;;6.21;90.32;96395.63;4894431;29;20237;-73
2023/12/02 07:08:56;;;;;;;34.70;17.23;;;;;;;6.37;89.54;96388.13;4894307;29;20225;-78
2023/12/02 07:11:23;;;;;;;29.70;16.47;;;;;;;6.41;88.47;96359.66;4894972;29;20201;-76
2023/12/02 07:13:50;;;;;;;28.40;15.10;;;;;;;6.74;88.59;96377.22;4892783;29;20215;-75
2023/12/02 07:16:18;;;;;;;28.23;15.90;;;;;;;6.72;87.57;96369.53;4893846;29;20200;-76
2023/12/02 07:18:45;;;;;;;28.67;15.73;;;;;;;6.81;87.57;96381.19;4894388;29;20321;-74
2023/12/02 07:21:13;;;;;;;36.53;18.70;;;;;;;6.53;87.86;96327.50;4906448;29;20211;-75
2023/12/02 07:23:40;;;;;;;31.50;17.07;;;;;;;6.99;87.89;96398.44;4907252;29;20281;-74
2023/12/02 07:26:08;;;;;;;34.37;18.67;;;;;;;6.94;87.33;96375.47;4895388;29;20652;-76
2023/12/02 07:28:35;;;;;;;43.77;21.07;;;;;;;7.09;87.47;96399.75;4912647;29;20276;-75
2023/12/02 07:31:03;;;;;;;39.90;21.43;;;;;;;7.18;87.60;96404.47;4912741;29;20286;-70
2023/12/02 07:33:30;;;;;;;49.63;24.53;;;;;;;7.08;87.91;96385.19;4913405;29;20206;-73
2023/12/02 07:35:57;;;;;;;38.10;22.63;;;;;;;7.09;88.38;96394.59;4912072;29;20300;-74
2023/12/02 07:38:24;;;;;;;43.67;21.53;;;;;;;7.38;87.78;96417.34;4895107;29;20304;-74
2023/12/02 07:40:51;;;;;;;42.40;21.63;;;;;;;7.58;88.21;96412.19;4910114;29;20214;-72
2023/12/02 07:43:18;;;;;;;45.10;23.60;;;;;;;7.65;87.26;96403.25;4911757;29;20260;-71
2023/12/02 07:45:45;;;;;;;37.03;18.87;;;;;;;7.90;87.01;96433.91;4895073;29;20240;-73
2023/12/02 07:48:14;;;;;;;39.53;19.37;;;;;;;7.81;87.53;96435.16;4912104;29;20236;-71
2023/12/02 07:50:42;;;;;;;30.43;17.10;;;;;;;7.84;88.90;96418.72;4912595;29;20198;-73
2023/12/02 07:53:09;;;;;;;33.37;16.40;;;;;;;8.01;89.46;96429.13;4910431;29;20213;-77
2023/12/02 07:55:36;;;;;;;32.33;15.33;;;;;;;8.11;89.65;96431.22;4895215;29;20194;-76
2023/12/02 07:58:03;;;;;;;26.30;13.70;;;;;;;8.10;90.13;96441.59;4912408;29;20210;-74
2023/12/02 08:00:31;;;;;;;33.33;15.37;;;;;;;7.86;90.45;96376.53;4913322;29;20897;-75
2023/12/02 08:02:58;;;;;;;31.83;16.30;;;;;;;8.32;90.74;96415.69;4891396;29;20556;-74
2023/12/02 08:05:25;;;;;;;26.73;13.87;;;;;;;8.33;90.57;96407.88;4892735;29;20235;-72
2023/12/02 08:07:56;;;;;;;27.73;13.63;;;;;;;8.26;90.48;96400.50;4893385;29;20274;-74
2023/12/02 08:10:23;;;;;;;30.73;14.97;;;;;;;8.36;91.02;96406.88;4892269;29;20198;-71
2023/12/02 08:12:50;;;;;;;37.30;18.47;;;;;;;8.61;90.31;96412.56;4893805;29;20267;-71
2023/12/02 08:15:17;;;;;;;31.83;16.07;;;;;;;8.79;89.72;96422.00;4892884;29;20290;-71
2023/12/02 08:17:46;;;;;;;34.10;17.10;;;;;;;8.61;90.23;96421.16;4876612;29;20505;-76
2023/12/02 08:20:14;;;;;;;31.83;16.10;;;;;;;8.65;89.77;96411.50;4878692;29;20195;-71
2023/12/02 08:22:41;;;;;;;30.73;15.73;;;;;;;8.81;90.21;96417.59;4880441;29;20192;-71
2023/12/02 08:25:08;;;;;;;27.67;15.50;;;;;;;8.76;89.72;96417.81;4886628;29;20679;-70
2023/12/02 08:27:35;;;;;;;30.53;15.70;;;;;;;8.56;89.78;96378.38;4881363;29;20235;-74
2023/12/02 08:30:05;;;;;;;33.53;18.00;;;;;;;8.56;90.43;96388.72;4880871;29;20195;-76
2023/12/02 08:32:32;;;;;;;34.33;19.17;;;;;;;8.79;90.36;96420.25;4885181;29;20294;-73
2023/12/02 08:35:00;;;;;;;49.97;23.10;;;;;;;8.94;90.46;96416.91;4878441;29;20744;-73
2023/12/02 08:37:31;;;;;;;45.03;23.23;;;;;;;9.07;89.38;96409.38;4874330;29;20227;-75
2023/12/02 08:40:01;;;;;;;44.73;22.33;;;;;;;8.81;89.42;96391.78;4874055;29;20219;-71
2023/12/02 08:42:30;;;;;;;40.30;21.37;;;;;;;8.82;90.33;96404.59;4873876;29;20588;-70
2023/12/02 08:44:57;;;;;;;43.10;23.67;;;;;;;9.02;89.65;96434.63;4873265;29;20288;-74
2023/12/02 08:47:24;;;;;;;57.77;28.10;;;;;;;9.03;89.17;96416.47;4874000;29;20199;-76
2023/12/02 08:49:51;;;;;;;52.13;24.73;;;;;;;9.22;88.97;96426.72;4886711;29;20192;-74
2023/12/02 08:52:18;;;;;;;49.50;22.93;;;;;;;9.24;88.82;96424.88;4873178;29;20268;-74
2023/12/02 08:54:46;;;;;;;51.27;23.60;;;;;;;9.22;88.52;96421.53;4872897;29;20219;-72
2023/12/02 08:57:13;;;;;;;60.40;28.83;;;;;;;8.96;88.90;96384.09;4871477;29;20324;-73
2023/12/02 08:59:40;;;;;;;47.37;24.17;;;;;;;9.10;88.62;96411.00;4870980;29;20223;-76
2023/12/02 09:02:08;;;;;;;45.67;23.23;;;;;;;9.38;88.59;96437.94;4895555;29;20687;-75
2023/12/02 09:04:35;;;;;;;43.00;21.17;;;;;;;9.16;88.34;96388.28;4910911;29;20203;-74
2023/12/02 09:07:03;;;;;;;40.30;20.53;;;;;;;9.22;88.79;96424.13;4910292;29;20640;-78
2023/12/02 09:09:30;;;;;;;55.10;23.13;;;;;;;9.27;89.10;96418.75;4893330;29;20199;-77
2023/12/02 09:11:59;;;;;;;45.40;20.93;;;;;;;9.12;89.10;96404.84;4893155;29;20250;-77
2023/12/02 09:14:27;;;;;;;47.90;23.03;;;;;;;9.16;89.33;96380.53;4910309;29;20206;-75
2023/12/02 09:16:54;;;;;;;42.83;22.67;;;;;;;9.38;88.96;96400.91;4910284;29;20257;-78
2023/12/02 09:19:49;;;;;;;43.27;20.70;;;;;;;9.44;88.42;96385.09;4910624;29;20542;-76
2023/12/02 09:22:46;;;;;;;46.40;21.80;;;;;;;9.20;88.64;96314.88;4910440;29;20203;-76
2023/12/02 09:25:28;;;;;;;51.83;23.87;;;;;;;9.59;88.48;96363.63;4917646;29;20562;-71
2023/12/02 09:28:05;;;;;;;43.57;23.03;;;;;;;9.14;88.58;96310.03;4909884;29;20209;-73
2023/12/02 09:30:33;;;;;;;50.63;28.87;;;;;;;9.63;89.09;96347.03;4910904;29;20194;-75
2023/12/02 09:33:00;;;;;;;48.97;23.63;;;;;;;9.66;88.45;96346.91;4910257;29;20230;-73
2023/12/02 09:35:28;;;;;;;42.90;21.97;;;;;;;9.72;87.83;96365.50;4910299;29;20219;-73
2023/12/02 09:37:57;;;;;;;43.10;23.33;;;;;;;9.70;88.26;96362.16;4910307;29;20634;-73
2023/12/02 09:40:33;;;;;;;55.70;28.23;;;;;;;9.72;88.24;96351.75;4910317;29;20238;-77
2023/12/02 09:43:18;;;;;;;51.57;26.93;;;;;;;9.90;87.94;96358.50;4910043;29;20207;-72
2023/12/02 09:46:16;;;;;;;62.67;32.13;;;;;;;9.59;87.84;96289.50;4910001;29;20230;-76
2023/12/02 09:48:53;;;;;;;60.37;30.03;;;;;;;9.94;87.67;96348.81;4911543;29;20623;-77
2023/12/02 09:51:32;;;;;;;54.00;29.43;;;;;;;10.03;86.91;96337.97;4909895;29;20660;-77
2023/12/02 09:54:25;;;;;;;72.40;35.63;;;;;;;10.07;86.69;96340.31;4909868;29;20277;-75
2023/12/02 09:56:55;;;;;;;57.23;29.30;;;;;;;9.53;87.74;96291.59;4900621;29;20199;-75
2023/12/02 09:59:45;;;;;;;64.47;31.87;;;;;;;9.95;87.99;96345.34;4910028;29;20202;-78
2023/12/02 10:02:42;;;;;;;77.60;35.83;;;;;;;9.97;88.19;96338.31;4909062;29;20730;-75
2023/12/02 10:05:11;;;;;;;71.10;33.77;;;;;;;9.93;88.87;96318.72;4892924;29;20271;-71
2023/12/02 10:08:08;;;;;;;68.00;34.37;;;;;;;10.16;88.02;96328.66;4909468;29;20209;-77
2023/12/02 10:11:07;;;;;;;63.73;33.57;;;;;;;10.21;88.22;96344.75;4907882;29;20217;-74
2023/12/02 10:13:44;;;;;;;80.47;36.87;;;;;;;10.18;87.96;96342.34;4894863;29;20290;-73
2023/12/02 10:16:15;;;;;;;61.77;31.50;;;;;;;9.59;88.62;96274.00;4908627;29;20262;-77
2023/12/02 10:18:51;;;;;;;60.37;32.63;;;;;;;10.07;87.95;96334.31;4909858;29;20205;-71
2023/12/02 10:21:20;;;;;;;52.67;27.37;;;;;;;10.09;88.44;96337.66;4892158;29;20278;-73
2023/12/02 10:24:05;;;;;;;50.40;26.13;;;;;;;10.07;88.43;96324.81;4909446;29;20197;-78
2023/12/02 10:26:35;;;;;;;54.83;24.47;;;;;;;9.95;88.34;96309.97;4909314;29;20308;-75
2023/12/02 10:29:13;;;;;;;48.60;25.97;;;;;;;10.01;88.76;96322.56;4909339;29;20227;-77
2023/12/02 10:32:08;;;;;;;55.90;28.33;;;;;;;10.06;89.16;96317.09;4910005;29;20277;-75
2023/12/02 10:34:47;;;;;;;48.33;24.73;;;;;;;10.02;88.62;96298.34;4909522;29;20195;-76
2023/12/02 10:37:14;;;;;;;46.07;23.90;;;;;;;9.91;89.47;96307.63;4909770;29;20219;-73
2023/12/02 10:39:50;;;;;;;50.43;24.63;;;;;;;9.90;89.54;96305.94;4909767;29;20227;-73
2023/12/02 10:42:25;;;;;;;46.77;26.00;;;;;;;9.89;89.66;96291.34;4890013;29;20590;-74
2023/12/02 10:45:07;;;;;;;51.37;27.63;;;;;;;9.95;90.15;96273.75;4909827;29;20680;-77
2023/12/02 10:47:35;;;;;;;59.13;28.77;;;;;;;9.91;90.73;96271.41;4909201;29;20241;-74
2023/12/02 10:50:05;;;;;;;47.57;23.33;;;;;;;9.97;90.70;96281.41;4909536;29;20195;-77
2023/12/02 10:52:35;;;;;;;40.80;20.30;;;;;;;9.82;90.85;96278.78;4909817;29;20578;-81
2023/12/02 10:55:07;;;;;;;39.30;19.93;;;;;;;9.83;90.71;96233.88;4909346;29;20203;-74
2023/12/02 10:57:35;;;;;;;39.73;19.07;;;;;;;10.08;90.46;96256.59;4909583;29;20645;-77
2023/12/02 11:00:07;;;;;;;42.20;22.53;;;;;;;10.08;90.53;96263.53;4908522;29;20246;-77
2023/12/02 11:03:16;;;;;;;42.17;21.70;;;;;;;10.21;89.77;96264.56;4908900;29;20270;-75
2023/12/02 11:06:10;;;;;;;55.40;28.93;;;;;;;10.17;90.25;96276.00;4867791;29;20226;-74
2023/12/02 11:08:50;;;;;;;51.00;28.53;;;;;;;10.12;90.47;96276.25;4909359;29;20334;-77
2023/12/02 11:11:39;;;;;;;55.70;27.43;;;;;;;10.05;90.49;96263.72;4909713;29;20297;-79
2023/12/02 11:14:14;;;;;;;49.33;26.27;;;;;;;10.24;90.38;96285.91;4909488;29;20203;-78
2023/12/02 11:16:51;;;;;;;61.30;30.60;;;;;;;10.15;89.80;96270.06;4912451;29;20195;-74
2023/12/02 11:19:30;;;;;;;61.17;29.23;;;;;;;10.28;89.89;96286.59;4912905;29;20202;-72
2023/12/02 11:22:08;;;;;;;64.60;30.90;;;;;;;10.24;90.30;96282.50;4897259;29;20214;-80
2023/12/02 11:24:45;;;;;;;55.67;28.60;;;;;;;10.25;90.38;96286.75;4913592;29;20612;-76
2023/12/02 11:27:15;;;;;;;57.57;29.57;;;;;;;10.36;90.12;96281.81;4912818;29;20689;-72
2023/12/02 11:30:11;;;;;;;50.67;26.50;;;;;;;10.33;90.18;96269.88;4912375;29;20198;-76
2023/12/02 11:33:10;;;;;;;54.53;26.87;;;;;;;10.34;89.69;96268.13;4910870;29;20243;-71
2023/12/02 11:35:54;;;;;;;53.63;26.67;;;;;;;10.19;90.69;96266.38;4860995;29;20724;-72